Portada
METAR-TAF:

METAR-TAF

Aeropuertos :

Aeropuerto de Melilla

Melilla, España

latitud: 35-17N, longitud: 002-57W, altitud: 47 m

Observación

El informe se hizo hace 31 minutos, a las 08:00 UTC
Viento 10 kt del oeste, variando entre oeste-suroeste y noroeste
Temperatura 20°C
Humedad 60%
Presión 1019 hPa
Visibilidad 10 km o más
sin nubes por debajo de 1500 m y sin presencia de cumulonimbus.

METAR: GEML 130800Z 28010KT 240V320 CAVOK 20/12 Q1019

Hora: 10:31 (08:31 UTC)

Pronóstico

El informe se hizo hace 3 horas y 31 minutos, a las 05:00 UTC
Pronóstico válido del 13 a las 06 UTC al 14 a las 06 UTC
Viento 12 kt del oeste
Visibilidad 10 km o más
sin nubes por debajo de 1500 m y sin presencia de cumulonimbus.
Probabilidad 40% :
Temporalmente
del 13 a las 06 UTC al 14 a las 06 UTC
Viento 15 kt del oeste con ráfagas de 25 kt

TAF: GEML 130500Z 1306/1406 27012KT CAVOK TX25/1313Z TN17/1306Z PROB40 TEMPO 1306/1406 27015G25KT

Observaciones y pronósticos meteorológicos de más de 4000 aeropuertos (mensajes METAR y TAF).

Los puntos amarillos y rojos representan las estaciones disponibles.

Ponga el ratón en el punto deseado para ver el nombre de la estación.

Haga clic para ver las observaciones y los pronósticos meteorológicos.

Para cambiar el mapa : haga clic en los botones verdes con una cruz de color negro para hacer un zoom, en el botón verde con un guión para alejar o en las flechas verdes para mapas adyacentes.


METAR-TAF: